Main page
METAR-TAF:

METAR-TAF

Airports :

Oil platform Norsk Hydro

Oseberg, Norway

latitude: 60-29-29N, longitude: 2-49-32E, elevation: 158 m

Current weather observation

The report was made 25 minutes ago, at 20:20 UTC
Wind 11 kt from the East/Southeast
Temperature 16°C
Humidity 100%
Pressure 1000 hPa
Visibility: 7000 m
Few clouds at a height of 800 ft
Broken clouds at a height of 2000 ft

METAR: ENOA 282020Z 12011KT 7000 FEW008 BKN020 16/16 Q1000 W///S3

Time: 22:45 (20:45 UTC)

Forecast

Forecast valid from 28 at 18 UTC to 29 at 18 UTC
Wind 10 kt from the South/Southeast
Visibility: 8000 m
Scattered clouds at a height of 600 ft
Broken clouds at a height of 2000 ft
Temporary
from 28 at 18 UTC to 29 at 10 UTC
Visibility: 3000 m
Broken clouds at a height of 500 ft
Scattered clouds at a height of 2500 ft, Cumulonimbus.
rain showers, mist
Becoming
from 29 at 10 UTC to 29 at 12 UTC
Wind 15 kt from the North

TAF: ENOA 2818/2918 16010KT 8000 SCT006 BKN020 TEMPO 2818/2910 3000 SHRA BR BKN005 SCT025CB BECMG 2910/2912 01015KT

Weather observations and forecasts of more than 4000 airports (METAR and TAF reports).

The available stations are represented by yellow and red dots on the map.

Hover mouse over dot to see the name of the station.

Then click to see weather observations and forecasts.

To change the map : click on the green buttons with a black cross to zoom in, on the green button with a dash to zoom out, or on the green arrows for adjacent maps.


METAR-TAF: